createdAt,value
2019-02-16T00:01:56.423Z,60.00
2019-02-16T00:04:48.266Z,60.00
2019-02-16T00:07:40.359Z,60.00
2019-02-16T00:10:32.244Z,60.10
2019-02-16T00:13:24.377Z,60.00
2019-02-16T00:16:16.754Z,60.20
2019-02-16T00:19:09.045Z,60.20
2019-02-16T00:22:01.066Z,60.10
2019-02-16T00:24:53.352Z,60.20
2019-02-16T00:27:45.149Z,60.10
2019-02-16T00:30:37.205Z,60.10
2019-02-16T00:33:30.459Z,60.10
2019-02-16T00:36:22.353Z,60.20
2019-02-16T00:39:14.520Z,60.10
2019-02-16T00:42:06.459Z,60.10
2019-02-16T00:44:58.563Z,60.00
2019-02-16T00:47:50.555Z,60.10
2019-02-16T00:50:42.678Z,60.10
2019-02-16T00:53:34.891Z,60.20
2019-02-16T00:56:26.721Z,60.10
2019-02-16T00:59:18.738Z,60.10
2019-02-16T01:02:10.678Z,60.00
2019-02-16T01:05:02.823Z,60.00
2019-02-16T01:07:54.837Z,60.00
2019-02-16T01:10:47.170Z,60.00
2019-02-16T01:13:39.517Z,60.00
2019-02-16T01:16:31.526Z,59.90
2019-02-16T01:19:23.184Z,60.00
2019-02-16T01:22:15.010Z,59.90
2019-02-16T01:25:06.844Z,59.90
2019-02-16T01:27:59.087Z,60.00
2019-02-16T01:30:51.352Z,60.00
2019-02-16T01:33:45.455Z,60.30
2019-02-16T01:36:37.031Z,60.10
2019-02-16T01:39:29.123Z,60.10
2019-02-16T01:42:21.066Z,60.00
2019-02-16T01:45:13.582Z,60.00
2019-02-16T01:48:05.739Z,60.00
2019-02-16T01:50:57.766Z,60.00
2019-02-16T01:53:50.097Z,60.00
2019-02-16T01:56:42.545Z,60.00
2019-02-16T01:59:34.615Z,60.00
2019-02-16T02:02:26.837Z,60.00
2019-02-16T02:05:19.293Z,60.00
2019-02-16T02:08:11.553Z,60.10
2019-02-16T02:11:05.336Z,60.10
2019-02-16T02:13:57.329Z,60.30
2019-02-16T02:16:49.692Z,60.20
2019-02-16T02:19:41.746Z,60.10
2019-02-16T02:22:34.120Z,60.10
2019-02-16T02:25:26.184Z,60.10
2019-02-16T02:28:18.227Z,60.10
2019-02-16T02:31:10.536Z,60.00
2019-02-16T02:34:02.726Z,60.00
2019-02-16T02:36:54.608Z,60.10
2019-02-16T02:39:47.305Z,60.00
2019-02-16T02:42:39.243Z,60.10
2019-02-16T02:45:31.229Z,60.00
2019-02-16T02:48:23.732Z,60.10
2019-02-16T02:51:16.055Z,60.10
2019-02-16T02:54:08.427Z,60.10
2019-02-16T02:57:00.709Z,60.10
2019-02-16T02:59:52.768Z,60.10
2019-02-16T03:02:46.034Z,60.20
2019-02-16T03:05:38.436Z,60.10
2019-02-16T03:08:30.400Z,60.20
2019-02-16T03:11:22.636Z,60.20
2019-02-16T03:14:14.822Z,60.20
2019-02-16T03:17:06.873Z,60.30
2019-02-16T03:19:59.154Z,60.30
2019-02-16T03:23:14.422Z,60.10
2019-02-16T03:26:23.242Z,60.00
2019-02-16T03:29:33.860Z,60.20
2019-02-16T03:32:43.580Z,60.30
2019-02-16T03:35:53.722Z,60.20
2019-02-16T03:38:54.795Z,60.30
2019-02-16T03:41:47.135Z,60.20
2019-02-16T03:44:39.399Z,60.20
2019-02-16T03:47:31.478Z,60.20
2019-02-16T03:50:23.965Z,60.20
2019-02-16T03:53:15.951Z,60.10
2019-02-16T03:56:08.249Z,60.20
2019-02-16T03:59:00.308Z,60.30
2019-02-16T04:01:52.236Z,60.20
2019-02-16T04:04:44.343Z,60.30
2019-02-16T04:07:36.707Z,60.20
2019-02-16T04:10:28.804Z,60.20
2019-02-16T04:13:20.793Z,60.30
2019-02-16T04:16:13.104Z,60.20
2019-02-16T04:19:05.360Z,60.20
2019-02-16T04:21:57.533Z,60.20
2019-02-16T04:24:50.088Z,60.60
2019-02-16T04:27:42.494Z,60.80
2019-02-16T04:30:34.730Z,61.20
2019-02-16T04:33:28.122Z,61.00
2019-02-16T04:36:20.397Z,61.00
2019-02-16T04:39:12.704Z,61.20
2019-02-16T04:42:05.195Z,61.50
2019-02-16T04:44:57.388Z,61.20
2019-02-16T04:47:50.008Z,61.40
2019-02-16T04:50:42.610Z,62.10
2019-02-16T04:53:34.802Z,61.50
2019-02-16T04:56:27.407Z,61.10
2019-02-16T04:59:19.831Z,61.10
2019-02-16T05:02:11.641Z,61.50
2019-02-16T05:05:03.563Z,61.10
2019-02-16T05:07:55.497Z,61.00
2019-02-16T05:10:47.629Z,61.40
2019-02-16T05:13:40.209Z,61.10
2019-02-16T05:16:32.126Z,61.20
2019-02-16T05:19:24.841Z,60.80
2019-02-16T05:22:18.790Z,61.00
2019-02-16T05:25:10.640Z,60.90
2019-02-16T05:28:03.516Z,60.30
2019-02-16T05:30:56.855Z,61.00
2019-02-16T05:33:50.029Z,61.10
2019-02-16T05:36:42.797Z,61.30
2019-02-16T05:39:34.913Z,61.60
2019-02-16T05:42:26.964Z,61.80
2019-02-16T05:45:18.884Z,61.30
2019-02-16T05:48:12.152Z,61.70
2019-02-16T05:51:05.599Z,62.20
2019-02-16T05:53:59.295Z,62.60
2019-02-16T05:56:53.405Z,62.60
2019-02-16T05:59:46.554Z,62.30
2019-02-16T06:02:39.172Z,62.60
2019-02-16T06:05:31.248Z,62.70
2019-02-16T06:08:26.438Z,62.40
2019-02-16T06:11:19.249Z,62.60
2019-02-16T06:14:12.045Z,62.70
2019-02-16T06:17:05.488Z,61.00
2019-02-16T06:19:59.392Z,62.20
2019-02-16T06:23:03.293Z,62.70
2019-02-16T06:25:48.521Z,62.70
2019-02-16T06:28:42.090Z,63.00
2019-02-16T06:31:35.945Z,63.20
2019-02-16T06:34:29.308Z,62.90
2019-02-16T06:37:26.987Z,63.20
2019-02-16T06:40:20.596Z,63.20
2019-02-16T06:43:13.397Z,63.30
2019-02-16T06:46:05.581Z,63.30
2019-02-16T06:48:57.894Z,63.30
2019-02-16T06:51:52.982Z,63.40
2019-02-16T06:54:47.919Z,63.50
2019-02-16T06:57:43.334Z,63.50
2019-02-16T07:00:36.967Z,63.40
2019-02-16T07:03:29.891Z,63.10
2019-02-16T07:06:23.394Z,62.70
2019-02-16T07:09:16.368Z,62.30
2019-02-16T07:12:08.696Z,62.40
2019-02-16T07:15:00.608Z,62.30
2019-02-16T07:18:20.887Z,62.10
2019-02-16T07:21:12.789Z,62.10
2019-02-16T07:24:04.749Z,62.60
2019-02-16T07:26:57.672Z,62.90
2019-02-16T07:29:51.143Z,62.90
2019-02-16T07:32:43.222Z,63.00
2019-02-16T07:35:36.435Z,63.00
2019-02-16T07:38:28.968Z,63.00
2019-02-16T07:41:21.571Z,63.00
2019-02-16T07:44:31.807Z,63.00
2019-02-16T07:47:40.652Z,63.00
2019-02-16T07:50:57.896Z,63.00
2019-02-16T07:54:03.144Z,63.00
2019-02-16T07:57:02.312Z,62.80
2019-02-16T08:00:18.910Z,62.70
2019-02-16T08:03:17.181Z,62.30
2019-02-16T08:06:42.032Z,61.70
2019-02-16T08:09:42.177Z,61.30
2019-02-16T08:12:55.326Z,61.10
2019-02-16T08:16:14.434Z,60.90
2019-02-16T08:19:41.048Z,60.90
2019-02-16T08:22:42.823Z,61.20
2019-02-16T08:25:56.284Z,61.40
2019-02-16T08:29:13.706Z,61.50
2019-02-16T08:32:26.968Z,61.70
2019-02-16T08:35:33.988Z,62.00
2019-02-16T08:38:59.486Z,62.10
2019-02-16T08:42:24.331Z,62.40
2019-02-16T08:45:23.298Z,62.50
2019-02-16T08:48:30.588Z,62.70
2019-02-16T08:51:30.152Z,62.80
2019-02-16T08:54:49.043Z,62.80
2019-02-16T08:58:02.141Z,62.50
2019-02-16T09:01:22.410Z,62.40
2019-02-16T09:04:24.015Z,62.50
2019-02-16T09:07:23.524Z,62.80
2019-02-16T09:10:36.610Z,62.80
2019-02-16T09:13:37.927Z,62.70
2019-02-16T09:17:00.591Z,62.60
2019-02-16T09:20:09.019Z,62.60
2019-02-16T09:23:20.694Z,62.50
2019-02-16T09:26:33.973Z,62.30
2019-02-16T09:29:43.309Z,62.30
2019-02-16T09:32:56.380Z,62.30
2019-02-16T09:36:06.596Z,62.40
2019-02-16T09:39:26.446Z,62.30
2019-02-16T09:42:37.141Z,62.40
2019-02-16T09:45:47.689Z,62.30
2019-02-16T09:48:56.130Z,62.30
2019-02-16T09:51:58.407Z,62.10
2019-02-16T09:55:07.900Z,62.00
2019-02-16T09:58:10.904Z,62.10
2019-02-16T10:01:34.215Z,62.20
2019-02-16T10:04:41.799Z,62.20
2019-02-16T10:07:46.467Z,62.20
2019-02-16T10:10:46.563Z,62.40
2019-02-16T10:13:50.395Z,62.40
2019-02-16T10:17:01.672Z,62.80
2019-02-16T10:20:01.635Z,62.70
2019-02-16T10:23:01.530Z,62.10
2019-02-16T10:26:04.609Z,63.00
2019-02-16T10:29:23.049Z,63.00
2019-02-16T10:32:32.846Z,62.70
2019-02-16T10:35:44.637Z,63.10
2019-02-16T10:39:00.454Z,62.70
2019-02-16T10:42:10.737Z,63.10
2019-02-16T10:45:19.155Z,62.90
2019-02-16T10:48:39.234Z,63.00
2019-02-16T10:51:59.101Z,62.60
2019-02-16T10:55:09.501Z,62.70
2019-02-16T10:58:17.749Z,62.70
2019-02-16T11:01:28.270Z,62.80
2019-02-16T11:04:39.188Z,63.00
2019-02-16T11:08:01.337Z,62.90
2019-02-16T11:11:01.418Z,62.60
2019-02-16T11:14:11.790Z,62.70
2019-02-16T11:17:21.492Z,62.70
2019-02-16T11:20:38.406Z,62.70
2019-02-16T11:23:51.422Z,62.80
2019-02-16T11:26:48.553Z,63.20
2019-02-16T11:30:04.494Z,63.30
2019-02-16T11:33:20.893Z,63.00
2019-02-16T11:36:19.710Z,63.20
2019-02-16T11:39:37.288Z,63.10
2019-02-16T11:42:51.813Z,63.10
2019-02-16T11:46:05.758Z,63.00
2019-02-16T11:49:18.999Z,63.20
2019-02-16T11:52:43.314Z,63.10
2019-02-16T11:55:56.357Z,63.10
2019-02-16T11:59:07.066Z,63.00
2019-02-16T12:02:16.428Z,63.20
2019-02-16T12:05:26.704Z,63.80
2019-02-16T12:08:29.666Z,63.40
2019-02-16T12:11:40.257Z,63.40
2019-02-16T12:14:54.803Z,63.50
2019-02-16T12:17:59.623Z,63.60
2019-02-16T12:21:08.091Z,63.40
2019-02-16T12:24:19.727Z,63.80
2019-02-16T12:27:30.422Z,63.70
2019-02-16T12:30:44.262Z,63.40
2019-02-16T12:33:54.576Z,64.20
2019-02-16T12:37:21.948Z,63.90
2019-02-16T12:40:24.014Z,64.10
2019-02-16T12:43:43.351Z,63.80
2019-02-16T12:46:41.387Z,64.00
2019-02-16T12:49:50.663Z,64.00
2019-02-16T12:52:55.762Z,64.30
2019-02-16T12:56:12.771Z,64.20
2019-02-16T12:59:10.118Z,64.20
2019-02-16T13:02:21.802Z,63.80
2019-02-16T13:05:38.042Z,64.10
2019-02-16T13:08:44.450Z,63.70
2019-02-16T13:11:56.968Z,63.50
2019-02-16T13:15:13.092Z,63.60
2019-02-16T13:18:13.822Z,63.40
2019-02-16T13:21:17.898Z,63.60
2019-02-16T13:24:28.346Z,63.50
2019-02-16T13:27:44.545Z,63.50
2019-02-16T13:31:02.549Z,63.30
2019-02-16T13:34:16.528Z,63.20
2019-02-16T13:37:33.319Z,63.00
2019-02-16T13:40:46.848Z,62.90
2019-02-16T13:44:04.321Z,62.80
2019-02-16T13:47:09.418Z,62.80
2019-02-16T13:50:07.077Z,62.90
2019-02-16T13:53:17.367Z,63.20
2019-02-16T13:56:29.852Z,63.10
2019-02-16T13:59:38.417Z,62.70
2019-02-16T14:02:44.443Z,62.90
2019-02-16T14:05:49.430Z,62.90
2019-02-16T14:08:58.372Z,62.90
2019-02-16T14:12:14.529Z,63.00
2019-02-16T14:15:25.260Z,63.00
2019-02-16T14:18:17.368Z,62.90
2019-02-16T14:21:09.452Z,62.80
2019-02-16T14:24:03.268Z,62.90
2019-02-16T14:26:55.939Z,63.10
2019-02-16T14:29:49.042Z,62.70
2019-02-16T14:32:41.580Z,62.80
2019-02-16T14:35:33.663Z,62.80
2019-02-16T14:38:36.680Z,62.60
2019-02-16T14:41:28.655Z,62.90
2019-02-16T14:44:21.087Z,62.70
2019-02-16T14:47:13.466Z,63.10
2019-02-16T14:50:05.431Z,63.20
2019-02-16T14:52:57.437Z,63.00
2019-02-16T14:55:54.093Z,63.50
2019-02-16T14:58:43.923Z,63.80
2019-02-16T15:01:36.239Z,63.80
2019-02-16T15:04:28.465Z,63.80
2019-02-16T15:07:21.115Z,63.90
2019-02-16T15:10:13.696Z,64.00
2019-02-16T15:13:05.945Z,64.00
2019-02-16T15:15:59.196Z,64.00
2019-02-16T15:18:51.458Z,64.00
2019-02-16T15:21:43.288Z,64.10
2019-02-16T15:24:35.481Z,63.90
2019-02-16T15:27:27.516Z,64.10
2019-02-16T15:30:20.112Z,64.30
2019-02-16T15:33:12.233Z,64.50
2019-02-16T15:36:04.315Z,64.50
2019-02-16T15:38:57.504Z,64.40
2019-02-16T15:41:49.933Z,64.60
2019-02-16T15:44:41.933Z,64.60
2019-02-16T15:47:35.822Z,64.50
2019-02-16T15:50:28.473Z,64.70
2019-02-16T15:53:20.838Z,64.60
2019-02-16T15:56:13.167Z,64.40
2019-02-16T15:59:05.281Z,64.30
2019-02-16T16:01:57.647Z,64.60
2019-02-16T16:04:50.163Z,64.60
2019-02-16T16:07:43.911Z,64.40
2019-02-16T16:10:40.254Z,64.40
2019-02-16T16:13:50.728Z,64.40
2019-02-16T16:17:06.701Z,64.70
2019-02-16T16:20:17.513Z,64.80
2019-02-16T16:23:21.535Z,64.70
2019-02-16T16:26:35.256Z,64.90
2019-02-16T16:29:45.615Z,64.80
2019-02-16T16:33:08.642Z,64.90
2019-02-16T16:36:41.229Z,64.80
2019-02-16T16:39:52.279Z,65.10
2019-02-16T16:43:06.157Z,65.00
2019-02-16T16:46:13.642Z,64.80
2019-02-16T16:49:24.011Z,64.70
2019-02-16T16:52:40.618Z,64.60
2019-02-16T16:55:54.171Z,64.50
2019-02-16T16:58:56.685Z,64.50
2019-02-16T17:02:25.216Z,64.40
2019-02-16T17:05:51.377Z,64.20
2019-02-16T17:08:55.532Z,64.30
2019-02-16T17:12:09.819Z,64.40
2019-02-16T17:15:29.802Z,64.50
2019-02-16T17:18:35.248Z,64.70
2019-02-16T17:21:48.922Z,64.80
2019-02-16T17:24:51.784Z,64.90
2019-02-16T17:28:17.946Z,64.70
2019-02-16T17:31:31.361Z,64.80
2019-02-16T17:34:47.648Z,65.00
2019-02-16T17:37:48.505Z,65.10
2019-02-16T17:40:55.777Z,65.20
2019-02-16T17:44:05.227Z,65.40
2019-02-16T17:47:11.403Z,65.40
2019-02-16T17:50:27.700Z,65.40
2019-02-16T17:53:36.300Z,65.50
2019-02-16T17:56:47.058Z,65.50
2019-02-16T18:00:01.950Z,65.50
2019-02-16T18:03:19.024Z,65.70
2019-02-16T18:06:32.602Z,65.80
2019-02-16T18:09:34.033Z,66.00
2019-02-16T18:12:33.543Z,66.00
2019-02-16T18:15:53.551Z,65.80
2019-02-16T18:18:51.509Z,66.40
2019-02-16T18:21:48.555Z,66.10
2019-02-16T18:24:58.854Z,66.20
2019-02-16T18:28:09.613Z,66.30
2019-02-16T18:31:21.285Z,66.20
2019-02-16T18:34:26.129Z,66.30
2019-02-16T18:37:39.459Z,66.40
2019-02-16T18:40:48.381Z,66.60
2019-02-16T18:43:59.765Z,66.40
2019-02-16T18:47:00.249Z,66.20
2019-02-16T18:50:10.707Z,66.60
2019-02-16T18:53:27.730Z,66.60
2019-02-16T18:56:36.920Z,66.80
2019-02-16T18:59:53.968Z,66.90
2019-02-16T19:03:04.394Z,66.90
2019-02-16T19:06:13.853Z,67.20
2019-02-16T19:09:29.009Z,67.40
2019-02-16T19:12:34.999Z,67.10
2019-02-16T19:15:45.949Z,66.70
2019-02-16T19:19:08.717Z,66.60
2019-02-16T19:22:11.927Z,66.50
2019-02-16T19:25:22.488Z,66.20
2019-02-16T19:28:41.824Z,66.20
2019-02-16T19:31:51.099Z,66.50
2019-02-16T19:35:04.711Z,66.70
2019-02-16T19:38:06.147Z,66.90
2019-02-16T19:41:28.691Z,66.90
2019-02-16T19:44:56.604Z,67.00
2019-02-16T19:48:05.617Z,66.90
2019-02-16T19:51:22.442Z,67.20
2019-02-16T19:54:39.675Z,67.00
2019-02-16T19:57:50.515Z,67.00
2019-02-16T20:00:59.134Z,67.00
2019-02-16T20:04:16.080Z,67.00
2019-02-16T20:07:25.628Z,67.00
2019-02-16T20:10:25.530Z,67.00
2019-02-16T20:13:38.245Z,67.10
2019-02-16T20:16:54.756Z,67.00
2019-02-16T20:20:07.790Z,67.00
2019-02-16T20:23:17.334Z,67.20
2019-02-16T20:26:26.541Z,67.40
2019-02-16T20:29:42.840Z,67.40
2019-02-16T20:33:02.625Z,67.50
2019-02-16T20:36:11.756Z,67.20
2019-02-16T20:39:28.394Z,67.20
2019-02-16T20:42:27.153Z,67.10
2019-02-16T20:45:43.352Z,67.30
2019-02-16T20:49:04.046Z,67.60
2019-02-16T20:52:17.626Z,67.50
2019-02-16T20:55:20.902Z,67.90
2019-02-16T20:58:32.609Z,67.80
2019-02-16T21:01:41.694Z,67.60
2019-02-16T21:04:51.744Z,67.70
2019-02-16T21:08:01.729Z,67.60
2019-02-16T21:11:14.770Z,67.90
2019-02-16T21:14:12.825Z,67.80
2019-02-16T21:17:21.679Z,67.80
2019-02-16T21:20:30.789Z,68.00
2019-02-16T21:23:47.177Z,68.40
2019-02-16T21:27:12.615Z,68.50
2019-02-16T21:30:22.775Z,68.60
2019-02-16T21:33:39.494Z,68.60
2019-02-16T21:36:58.740Z,68.40
2019-02-16T21:40:07.456Z,68.00
2019-02-16T21:43:29.948Z,67.60
2019-02-16T21:46:49.584Z,67.40
2019-02-16T21:50:02.809Z,67.20
2019-02-16T21:53:20.999Z,67.50
2019-02-16T21:56:33.875Z,67.40
2019-02-16T21:59:50.788Z,67.40
2019-02-16T22:02:54.107Z,67.40
2019-02-16T22:06:14.944Z,67.60
2019-02-16T22:09:18.721Z,67.80
2019-02-16T22:12:23.235Z,68.10
2019-02-16T22:15:15.227Z,68.20
2019-02-16T22:18:07.641Z,68.30
2019-02-16T22:20:59.590Z,68.40
2019-02-16T22:23:51.723Z,68.10
2019-02-16T22:26:43.979Z,67.90
2019-02-16T22:29:35.682Z,67.90
2019-02-16T22:32:28.107Z,67.90
2019-02-16T22:35:20.354Z,67.80
2019-02-16T22:38:12.081Z,67.80
2019-02-16T22:41:03.756Z,67.70
2019-02-16T22:43:55.544Z,67.70
2019-02-16T22:46:47.972Z,67.60
2019-02-16T22:49:39.911Z,67.70
2019-02-16T22:52:31.926Z,67.50
2019-02-16T22:55:24.287Z,67.60
2019-02-16T22:58:16.820Z,67.50
2019-02-16T23:01:08.892Z,67.60
2019-02-16T23:04:02.280Z,67.50
2019-02-16T23:06:54.289Z,67.40
2019-02-16T23:09:46.478Z,67.60
2019-02-16T23:12:38.575Z,67.90
2019-02-16T23:15:30.657Z,67.40
2019-02-16T23:18:22.691Z,67.50
2019-02-16T23:21:14.813Z,67.60
2019-02-16T23:24:06.990Z,67.30
2019-02-16T23:27:00.403Z,67.40
2019-02-16T23:29:52.737Z,67.40
2019-02-16T23:32:45.402Z,67.20
2019-02-16T23:35:37.873Z,67.30
2019-02-16T23:38:30.076Z,67.10
2019-02-16T23:41:22.369Z,67.00
2019-02-16T23:44:14.402Z,66.70
2019-02-16T23:47:06.402Z,66.70
2019-02-16T23:49:58.733Z,66.50
2019-02-16T23:52:50.720Z,66.60
2019-02-16T23:55:42.818Z,66.70
2019-02-16T23:58:34.764Z,66.50
